Time;durP1;ratioP1;P1;durP2;ratioP2;P2;SDS_P1;SDS_P2;PMS_P1;PMS_P2;Temp;Humidity;BMP_temperature;BMP_pressure;BME280_temperature;BME280_humidity;BME280_pressure;Samples;Min_cycle;Max_cycle;Signal;HPM_P1;HPM_P2
2022/07/11 00:00:25;;;;;;;;;;;;;;;;;;2206764;67;1266;-54
2022/07/11 00:02:58;;;;;;;;;;;;;;;;;;2207602;59;1351;-55
2022/07/11 00:05:34;;;;;;;;;;;;;;;;;;2207172;67;1947;-55
2022/07/11 00:08:07;;;;;;;;;;;;;;;;;;2206932;67;1845;-54
2022/07/11 00:10:41;;;;;;;;;;;;;;;;;;2207060;59;1260;-54
2022/07/11 00:13:14;;;;;;;;;;;;;;;;;;2207840;59;1243;-53
2022/07/11 00:15:47;;;;;;;;;;;;;;;;;;2208043;67;1106;-54
2022/07/11 00:18:20;;;;;;;;;;;;;;;;;;2207641;67;1194;-55
2022/07/11 00:20:56;;;;;;;;;;;;;;;;;;2207433;67;1155;-54
2022/07/11 00:23:29;;;;;;;;;;;;;;;;;;2206902;67;1086;-54
2022/07/11 00:26:03;;;;;;;;;;;;;;;;;;2208158;67;1988;-54
2022/07/11 00:28:36;;;;;;;;;;;;;;;;;;2207519;67;1228;-54
2022/07/11 00:31:10;;;;;;;;;;;;;;;;;;2207778;67;2044;-54
2022/07/11 00:33:43;;;;;;;;;;;;;;;;;;2207959;67;1174;-54
2022/07/11 00:36:19;;;;;;;;;;;;;;;;;;2208183;67;1687;-54
2022/07/11 00:38:52;;;;;;;;;;;;;;;;;;2207751;67;1172;-53
2022/07/11 00:41:26;;;;;;;;;;;;;;;;;;2207852;67;2216;-54
2022/07/11 00:44:01;;;;;;;;;;;;;;;;;;2208409;59;1270;-53
2022/07/11 00:46:34;;;;;;;;;;;;;;;;;;2207927;67;1929;-54
2022/07/11 00:49:07;;;;;;;;;;;;;;;;;;2208129;67;1235;-54
2022/07/11 00:51:44;;;;;;;;;;;;;;;;;;2208059;67;1227;-54
2022/07/11 00:54:19;;;;;;;;;;;;;;;;;;2207924;59;1343;-53
2022/07/11 00:56:52;;;;;;;;;;;;;;;;;;2208112;67;1012;-54
2022/07/11 00:59:26;;;;;;;;;;;;;;;;;;2207461;59;2017;-54
2022/07/11 01:01:59;;;;;;;;;;;;;;;;;;2208363;59;1293;-53
2022/07/11 01:04:32;;;;;;;;;;;;;;;;;;2207782;59;1237;-54
2022/07/11 01:07:08;;;;;;;;;;;;;;;;;;2207500;67;1943;-54
2022/07/11 01:09:41;;;;;;;;;;;;;;;;;;2207074;67;1206;-54
2022/07/11 01:12:14;;;;;;;;;;;;;;;;;;2208008;59;1459;-54
2022/07/11 01:14:53;;;;;;;;;;;;;;;;;;2208465;67;1103;-58
2022/07/11 01:17:26;;;;;;;;;;;;;;;;;;2207479;67;1227;-54
2022/07/11 01:20:00;;;;;;;;;;;;;;;;;;2208461;67;1168;-53
2022/07/11 01:22:39;;;;;;;;;;;;;;;;;;2207764;67;1223;-54
2022/07/11 01:25:30;;;;;;;;;;;;;;;;;;2207370;67;2056;-54
2022/07/11 01:28:03;;;;;;;;;;;;;;;;;;2208058;67;1252;-54
2022/07/11 01:30:36;;;;;;;;;;;;;;;;;;2206792;67;2131;-60
2022/07/11 01:33:10;;;;;;;;;;;;;;;;;;2207001;67;1220;-54
2022/07/11 01:35:43;;;;;;;;;;;;;;;;;;2207729;67;1092;-54
2022/07/11 01:38:16;;;;;;;;;;;;;;;;;;2207554;67;1204;-54
2022/07/11 01:40:52;;;;;;;;;;;;;;;;;;2208043;59;1988;-54
2022/07/11 01:43:25;;;;;;;;;;;;;;;;;;2207856;67;1220;-53
2022/07/11 01:45:58;;;;;;;;;;;;;;;;;;2207524;67;1996;-54
2022/07/11 01:48:31;;;;;;;;;;;;;;;;;;2207641;67;1087;-53
2022/07/11 01:51:05;;;;;;;;;;;;;;;;;;2207580;67;1555;-54
2022/07/11 01:53:38;;;;;;;;;;;;;;;;;;2208104;67;1240;-54
2022/07/11 01:56:14;;;;;;;;;;;;;;;;;;2207407;67;1209;-54
2022/07/11 01:58:47;;;;;;;;;;;;;;;;;;2207305;67;1102;-55
2022/07/11 02:01:20;;;;;;;;;;;;;;;;;;2207323;67;1276;-54
2022/07/11 02:03:53;;;;;;;;;;;;;;;;;;2207794;67;1324;-54
2022/07/11 02:06:26;;;;;;;;;;;;;;;;;;2207600;59;1967;-54
2022/07/11 02:09:00;;;;;;;;;;;;;;;;;;2207220;67;1234;-55
2022/07/11 02:11:36;;;;;;;;;;;;;;;;;;2207744;59;1164;-53
2022/07/11 02:14:09;;;;;;;;;;;;;;;;;;2207710;67;1162;-55
2022/07/11 02:16:43;;;;;;;;;;;;;;;;;;2207865;67;1183;-54
2022/07/11 02:19:16;;;;;;;;;;;;;;;;;;2207204;67;1195;-54
2022/07/11 02:21:49;;;;;;;;;;;;;;;;;;2207608;67;1229;-54
2022/07/11 02:24:22;;;;;;;;;;;;;;;;;;2207547;67;1228;-54
2022/07/11 02:26:58;;;;;;;;;;;;;;;;;;2207520;67;1939;-54
2022/07/11 02:29:31;;;;;;;;;;;;;;;;;;2207108;67;1213;-54
2022/07/11 02:32:05;;;;;;;;;;;;;;;;;;2207282;59;2056;-55
2022/07/11 02:34:38;;;;;;;;;;;;;;;;;;2207403;67;1231;-53
2022/07/11 02:37:11;;;;;;;;;;;;;;;;;;2207226;67;1198;-53
2022/07/11 02:39:44;;;;;;;;;;;;;;;;;;2207407;67;1192;-54
2022/07/11 02:42:21;;;;;;;;;;;;;;;;;;2207430;59;1993;-54
2022/07/11 02:44:54;;;;;;;;;;;;;;;;;;2208068;59;1115;-54
2022/07/11 02:47:27;;;;;;;;;;;;;;;;;;2207109;67;1934;-53
2022/07/11 02:50:01;;;;;;;;;;;;;;;;;;2207810;67;1129;-54
2022/07/11 02:52:34;;;;;;;;;;;;;;;;;;2207576;67;1831;-54
2022/07/11 02:55:08;;;;;;;;;;;;;;;;;;2207477;67;1128;-55
2022/07/11 02:57:44;;;;;;;;;;;;;;;;;;2207756;67;1729;-54
2022/07/11 03:00:18;;;;;;;;;;;;;;;;;;2207411;67;1148;-53
2022/07/11 03:02:51;;;;;;;;;;;;;;;;;;2207122;59;2456;-56
2022/07/11 03:05:24;;;;;;;;;;;;;;;;;;2206865;59;1927;-54
2022/07/11 03:07:57;;;;;;;;;;;;;;;;;;2207846;59;1228;-55
2022/07/11 03:10:31;;;;;;;;;;;;;;;;;;2207228;59;1444;-56
2022/07/11 03:13:07;;;;;;;;;;;;;;;;;;2208407;53;1983;-73
2022/07/11 03:15:40;;;;;;;;;;;;;;;;;;2206435;67;1195;-73
2022/07/11 03:18:13;;;;;;;;;;;;;;;;;;2204420;59;1263;-73
2022/07/11 03:20:46;;;;;;;;;;;;;;;;;;2205280;59;1251;-73
2022/07/11 03:23:19;;;;;;;;;;;;;;;;;;2205228;59;2385;-73
2022/07/11 03:25:52;;;;;;;;;;;;;;;;;;2314736;53;2049;-66
2022/07/11 03:28:28;;;;;;;;;;;;;;;;;;2205695;59;1200;-64
2022/07/11 03:31:01;;;;;;;;;;;;;;;;;;2206132;59;2041;-66
2022/07/11 03:33:34;;;;;;;;;;;;;;;;;;2202824;67;1211;-66
2022/07/11 03:36:08;;;;;;;;;;;;;;;;;;2202225;67;1128;-66
2022/07/11 03:38:41;;;;;;;;;;;;;;;;;;2202438;67;1272;-65
2022/07/11 03:41:16;;;;;;;;;;;;;;;;;;2202188;59;1864;-66
2022/07/11 03:43:52;;;;;;;;;;;;;;;;;;2202313;67;1236;-65
2022/07/11 03:46:26;;;;;;;;;;;;;;;;;;2201981;67;1922;-65
2022/07/11 03:48:59;;;;;;;;;;;;;;;;;;2202220;67;1167;-66
2022/07/11 03:51:32;;;;;;;;;;;;;;;;;;2201840;67;1270;-64
2022/07/11 03:54:05;;;;;;;;;;;;;;;;;;2201496;67;1105;-66
2022/07/11 03:56:38;;;;;;;;;;;;;;;;;;2202284;59;1160;-65
2022/07/11 03:59:14;;;;;;;;;;;;;;;;;;2202129;67;1210;-66
2022/07/11 04:01:47;;;;;;;;;;;;;;;;;;2202696;67;1206;-65
2022/07/11 04:04:20;;;;;;;;;;;;;;;;;;2202053;67;1222;-66
2022/07/11 04:06:54;;;;;;;;;;;;;;;;;;2202965;59;1924;-66
2022/07/11 04:09:27;;;;;;;;;;;;;;;;;;2202891;59;1284;-66
2022/07/11 04:12:00;;;;;;;;;;;;;;;;;;2203246;59;1396;-65
2022/07/11 04:14:36;;;;;;;;;;;;;;;;;;2203257;67;1152;-65
2022/07/11 04:17:10;;;;;;;;;;;;;;;;;;2202646;67;1190;-65
2022/07/11 04:19:43;;;;;;;;;;;;;;;;;;2202857;67;1064;-65
2022/07/11 04:22:17;;;;;;;;;;;;;;;;;;2203347;67;1194;-65
2022/07/11 04:24:50;;;;;;;;;;;;;;;;;;2202589;67;1144;-66
2022/07/11 04:27:24;;;;;;;;;;;;;;;;;;2202677;59;1987;-65
2022/07/11 04:30:00;;;;;;;;;;;;;;;;;;2202630;67;1156;-65
2022/07/11 04:32:33;;;;;;;;;;;;;;;;;;2202119;59;2361;-66
2022/07/11 04:35:06;;;;;;;;;;;;;;;;;;2204206;67;1102;-65
2022/07/11 04:37:39;;;;;;;;;;;;;;;;;;2203653;67;1089;-66
2022/07/11 04:40:13;;;;;;;;;;;;;;;;;;2202600;67;1185;-65
2022/07/11 04:42:46;;;;;;;;;;;;;;;;;;2203374;59;2230;-65
2022/07/11 04:45:22;;;;;;;;;;;;;;;;;;2203837;67;1204;-66
2022/07/11 04:47:55;;;;;;;;;;;;;;;;;;2203448;67;1924;-65
2022/07/11 04:50:28;;;;;;;;;;;;;;;;;;2203618;67;1243;-66
2022/07/11 04:53:01;;;;;;;;;;;;;;;;;;2203587;67;1226;-66
2022/07/11 04:55:37;;;;;;;;;;;;;;;;;;2203448;67;1107;-64
2022/07/11 04:58:11;;;;;;;;;;;;;;;;;;2203950;59;1116;-64
2022/07/11 05:00:47;;;;;;;;;;;;;;;;;;2203168;67;1105;-64
2022/07/11 05:03:20;;;;;;;;;;;;;;;;;;2202734;67;1162;-66
2022/07/11 05:05:53;;;;;;;;;;;;;;;;;;2203432;67;1211;-65
2022/07/11 05:08:26;;;;;;;;;;;;;;;;;;2203154;59;1987;-66
2022/07/11 05:11:00;;;;;;;;;;;;;;;;;;2203307;67;1376;-66
2022/07/11 05:13:33;;;;;;;;;;;;;;;;;;2203203;67;1137;-65
2022/07/11 05:16:09;;;;;;;;;;;;;;;;;;2203330;67;1173;-66
2022/07/11 05:18:43;;;;;;;;;;;;;;;;;;2203496;67;1101;-66
2022/07/11 05:21:21;;;;;;;;;;;;;;;;;;2202993;67;1208;-66
2022/07/11 05:23:55;;;;;;;;;;;;;;;;;;2203426;67;1107;-65
2022/07/11 05:26:28;;;;;;;;;;;;;;;;;;2203079;59;1927;-65
2022/07/11 05:29:01;;;;;;;;;;;;;;;;;;2203185;67;1242;-66
2022/07/11 05:31:37;;;;;;;;;;;;;;;;;;2202854;59;2020;-66
2022/07/11 05:34:10;;;;;;;;;;;;;;;;;;2202739;67;1201;-65
2022/07/11 05:36:43;;;;;;;;;;;;;;;;;;2203223;67;1251;-65
2022/07/11 05:39:16;;;;;;;;;;;;;;;;;;2202618;67;1219;-66
2022/07/11 05:41:51;;;;;;;;;;;;;;;;;;2202649;59;2019;-66
2022/07/11 05:44:24;;;;;;;;;;;;;;;;;;2202401;67;1955;-66
2022/07/11 05:47:03;;;;;;;;;;;;;;;;;;2203026;67;1943;-66
2022/07/11 05:49:37;;;;;;;;;;;;;;;;;;2202649;67;1115;-66
2022/07/11 05:52:11;;;;;;;;;;;;;;;;;;2202897;67;1230;-64
2022/07/11 05:54:44;;;;;;;;;;;;;;;;;;2202372;67;1119;-65
2022/07/11 05:57:17;;;;;;;;;;;;;;;;;;2202913;67;1224;-65
2022/07/11 05:59:50;;;;;;;;;;;;;;;;;;2202753;67;1152;-65
2022/07/11 06:02:26;;;;;;;;;;;;;;;;;;2202994;67;1222;-65
2022/07/11 06:04:59;;;;;;;;;;;;;;;;;;2202274;67;1089;-66
2022/07/11 06:10:21;;;;;;;;;;;;;;;;;;2202607;67;1122;-65
2022/07/11 06:12:55;;;;;;;;;;;;;;;;;;2202992;59;1634;-64
2022/07/11 06:15:28;;;;;;;;;;;;;;;;;;2202372;67;1260;-66
2022/07/11 06:18:04;;;;;;;;;;;;;;;;;;2202466;67;1286;-66
2022/07/11 06:20:37;;;;;;;;;;;;;;;;;;2202211;67;1203;-65
2022/07/11 06:23:10;;;;;;;;;;;;;;;;;;2202274;67;1525;-66
2022/07/11 06:25:43;;;;;;;;;;;;;;;;;;2202362;67;1312;-66
2022/07/11 06:28:16;;;;;;;;;;;;;;;;;;2203544;67;1985;-65
2022/07/11 06:30:50;;;;;;;;;;;;;;;;;;2202861;59;1934;-65
2022/07/11 06:33:25;;;;;;;;;;;;;;;;;;2203906;67;1323;-66
2022/07/11 06:35:59;;;;;;;;;;;;;;;;;;2202818;67;1223;-65
2022/07/11 06:38:32;;;;;;;;;;;;;;;;;;2203719;67;1120;-66
2022/07/11 06:41:05;;;;;;;;;;;;;;;;;;2202767;59;1940;-66
2022/07/11 06:43:38;;;;;;;;;;;;;;;;;;2203122;67;1192;-65
2022/07/11 06:46:12;;;;;;;;;;;;;;;;;;2202782;67;1163;-66
2022/07/11 06:48:48;;;;;;;;;;;;;;;;;;2203410;67;1991;-65
2022/07/11 06:51:21;;;;;;;;;;;;;;;;;;2204033;67;1209;-65
2022/07/11 06:53:55;;;;;;;;;;;;;;;;;;2203024;60;1156;-65
2022/07/11 06:56:28;;;;;;;;;;;;;;;;;;2203390;67;1173;-66
2022/07/11 06:59:01;;;;;;;;;;;;;;;;;;2203704;67;1303;-64
2022/07/11 07:01:34;;;;;;;;;;;;;;;;;;2202756;67;1249;-65
2022/07/11 07:04:11;;;;;;;;;;;;;;;;;;2201661;67;1181;-66
2022/07/11 07:06:44;;;;;;;;;;;;;;;;;;2201649;67;1034;-63
2022/07/11 07:09:17;;;;;;;;;;;;;;;;;;2203094;67;1928;-64
2022/07/11 07:11:50;;;;;;;;;;;;;;;;;;2203135;59;1314;-66
2022/07/11 07:14:24;;;;;;;;;;;;;;;;;;2203701;67;1322;-66
2022/07/11 07:16:58;;;;;;;;;;;;;;;;;;2203248;67;1164;-66
2022/07/11 07:19:34;;;;;;;;;;;;;;;;;;2203738;67;1240;-66
2022/07/11 07:22:08;;;;;;;;;;;;;;;;;;2203163;67;1231;-65
2022/07/11 07:24:41;;;;;;;;;;;;;;;;;;2201962;67;1080;-65
2022/07/11 07:27:14;;;;;;;;;;;;;;;;;;2202184;59;1925;-65
2022/07/11 07:29:48;;;;;;;;;;;;;;;;;;2203651;67;1085;-66
2022/07/11 07:32:21;;;;;;;;;;;;;;;;;;2202463;59;1944;-65
2022/07/11 07:35:00;;;;;;;;;;;;;;;;;;2203201;67;1161;-65
2022/07/11 07:37:33;;;;;;;;;;;;;;;;;;2203178;67;1237;-65
2022/07/11 07:40:07;;;;;;;;;;;;;;;;;;2202853;67;1218;-65
2022/07/11 07:42:40;;;;;;;;;;;;;;;;;;2202741;59;2023;-66
2022/07/11 07:45:14;;;;;;;;;;;;;;;;;;2203273;67;1137;-65
2022/07/11 07:47:47;;;;;;;;;;;;;;;;;;2202502;67;1931;-66
2022/07/11 07:50:23;;;;;;;;;;;;;;;;;;2203013;67;1217;-67
2022/07/11 07:52:56;;;;;;;;;;;;;;;;;;2202865;67;1270;-66
2022/07/11 07:55:29;;;;;;;;;;;;;;;;;;2202043;67;1240;-63
2022/07/11 07:58:03;;;;;;;;;;;;;;;;;;2202367;67;1208;-66
2022/07/11 08:03:26;;;;;;;;;;;;;;;;;;2202372;67;1151;-66
2022/07/11 08:06:01;;;;;;;;;;;;;;;;;;2202454;67;1164;-66
2022/07/11 08:08:35;;;;;;;;;;;;;;;;;;2202732;67;1967;-67
2022/07/11 08:11:08;;;;;;;;;;;;;;;;;;2202930;59;1367;-66
2022/07/11 08:13:41;;;;;;;;;;;;;;;;;;2202727;67;1319;-65
2022/07/11 08:16:14;;;;;;;;;;;;;;;;;;2202544;67;1200;-65
2022/07/11 08:18:47;;;;;;;;;;;;;;;;;;2202574;67;1209;-65
2022/07/11 08:21:23;;;;;;;;;;;;;;;;;;2202481;67;1191;-66
2022/07/11 08:23:57;;;;;;;;;;;;;;;;;;2202721;67;1180;-66
2022/07/11 08:26:30;;;;;;;;;;;;;;;;;;2201961;67;1160;-65
2022/07/11 08:29:04;;;;;;;;;;;;;;;;;;2202281;67;1988;-65
2022/07/11 08:31:37;;;;;;;;;;;;;;;;;;2202744;59;1941;-66
2022/07/11 08:34:10;;;;;;;;;;;;;;;;;;2202236;67;1194;-66
2022/07/11 08:36:46;;;;;;;;;;;;;;;;;;2202525;67;1090;-66
2022/07/11 08:39:19;;;;;;;;;;;;;;;;;;2202602;67;1240;-66
2022/07/11 08:41:52;;;;;;;;;;;;;;;;;;2202650;59;2079;-66
2022/07/11 08:44:26;;;;;;;;;;;;;;;;;;2203179;67;1292;-66
2022/07/11 08:47:00;;;;;;;;;;;;;;;;;;2202874;67;1021;-65
2022/07/11 08:49:34;;;;;;;;;;;;;;;;;;2202889;67;1940;-65
2022/07/11 08:52:10;;;;;;;;;;;;;;;;;;2202671;67;1287;-65
2022/07/11 08:54:43;;;;;;;;;;;;;;;;;;2203122;67;1197;-65
2022/07/11 08:57:16;;;;;;;;;;;;;;;;;;2202768;67;1092;-66
2022/07/11 08:59:50;;;;;;;;;;;;;;;;;;2203049;67;1085;-66
2022/07/11 09:02:23;;;;;;;;;;;;;;;;;;2202510;67;1211;-66
2022/07/11 09:04:56;;;;;;;;;;;;;;;;;;2202504;59;1333;-67
2022/07/11 09:07:32;;;;;;;;;;;;;;;;;;2203133;67;1175;-67
2022/07/11 09:10:05;;;;;;;;;;;;;;;;;;2202649;59;1159;-65
2022/07/11 09:12:39;;;;;;;;;;;;;;;;;;2203117;59;1262;-67
2022/07/11 09:15:12;;;;;;;;;;;;;;;;;;2202104;67;1183;-65
2022/07/11 09:17:45;;;;;;;;;;;;;;;;;;2202998;67;1190;-66
2022/07/11 09:20:19;;;;;;;;;;;;;;;;;;2202625;67;1197;-66
2022/07/11 09:25:44;;;;;;;;;;;;;;;;;;2198553;59;1139;-67
2022/07/11 09:28:17;;;;;;;;;;;;;;;;;;2202439;67;1992;-66
2022/07/11 09:30:50;;;;;;;;;;;;;;;;;;2202507;59;1931;-66
2022/07/11 09:33:23;;;;;;;;;;;;;;;;;;2202514;67;1356;-66
2022/07/11 09:35:56;;;;;;;;;;;;;;;;;;2202475;67;1199;-67
2022/07/11 09:38:32;;;;;;;;;;;;;;;;;;2202715;67;1145;-67
2022/07/11 09:41:13;;;;;;;;;;;;;;;;;;2202682;59;2005;-67
2022/07/11 09:43:46;;;;;;;;;;;;;;;;;;2202626;67;1287;-65
2022/07/11 09:46:21;;;;;;;;;;;;;;;;;;2202506;67;1242;-67
2022/07/11 09:48:54;;;;;;;;;;;;;;;;;;2202300;67;1925;-67
2022/07/11 09:51:28;;;;;;;;;;;;;;;;;;2202350;67;1274;-66
2022/07/11 09:54:04;;;;;;;;;;;;;;;;;;2202611;67;1188;-66
2022/07/11 09:56:40;;;;;;;;;;;;;;;;;;2202593;67;1137;-66
2022/07/11 09:59:13;;;;;;;;;;;;;;;;;;2202489;67;1087;-66
2022/07/11 10:01:47;;;;;;;;;;;;;;;;;;2202582;67;1212;-67
2022/07/11 10:04:21;;;;;;;;;;;;;;;;;;2202437;67;1172;-67
2022/07/11 10:06:54;;;;;;;;;;;;;;;;;;2202384;59;1186;-65
2022/07/11 10:09:31;;;;;;;;;;;;;;;;;;2202802;67;2062;-66
2022/07/11 10:12:04;;;;;;;;;;;;;;;;;;2202815;59;1311;-66
2022/07/11 10:14:38;;;;;;;;;;;;;;;;;;2202998;67;1196;-66
2022/07/11 10:17:14;;;;;;;;;;;;;;;;;;2201869;67;1220;-67
2022/07/11 10:19:55;;;;;;;;;;;;;;;;;;2202506;67;1244;-67
2022/07/11 10:22:32;;;;;;;;;;;;;;;;;;2202413;67;1270;-67
2022/07/11 10:25:15;;;;;;;;;;;;;;;;;;2203632;67;1665;-65
2022/07/11 10:27:57;;;;;;;;;;;;;;;;;;2203645;59;1091;-66
2022/07/11 10:30:48;;;;;;;;;;;;;;;;;;2203402;59;2053;-66
2022/07/11 10:33:21;;;;;;;;;;;;;;;;;;2202813;67;1271;-65
2022/07/11 10:35:55;;;;;;;;;;;;;;;;;;2203844;67;1133;-67
2022/07/11 10:38:28;;;;;;;;;;;;;;;;;;2203287;67;1234;-65
2022/07/11 10:41:04;;;;;;;;;;;;;;;;;;2203503;59;2130;-66
2022/07/11 10:43:40;;;;;;;;;;;;;;;;;;2202983;67;1207;-64
2022/07/11 10:46:16;;;;;;;;;;;;;;;;;;2203302;67;1201;-66
2022/07/11 10:49:01;;;;;;;;;;;;;;;;;;2203042;67;1931;-66
2022/07/11 10:51:39;;;;;;;;;;;;;;;;;;2202278;67;1212;-66
2022/07/11 10:54:15;;;;;;;;;;;;;;;;;;2202706;67;1729;-66
2022/07/11 10:56:59;;;;;;;;;;;;;;;;;;2203132;67;1105;-67
2022/07/11 10:59:32;;;;;;;;;;;;;;;;;;2202256;67;1096;-67
2022/07/11 11:02:10;;;;;;;;;;;;;;;;;;2202546;67;1287;-67
2022/07/11 11:04:44;;;;;;;;;;;;;;;;;;2202490;67;1040;-67
2022/07/11 11:07:30;;;;;;;;;;;;;;;;;;2202641;59;1198;-67
2022/07/11 11:10:04;;;;;;;;;;;;;;;;;;2202937;67;1936;-66
2022/07/11 11:12:57;;;;;;;;;;;;;;;;;;2202455;59;1299;-67
2022/07/11 11:15:42;;;;;;;;;;;;;;;;;;2202281;67;1185;-67
2022/07/11 11:18:36;;;;;;;;;;;;;;;;;;2202612;67;1138;-67
2022/07/11 11:21:16;;;;;;;;;;;;;;;;;;2203272;67;1193;-66
2022/07/11 11:24:02;;;;;;;;;;;;;;;;;;2202575;67;1178;-65
2022/07/11 11:26:54;;;;;;;;;;;;;;;;;;2202223;59;1206;-67
2022/07/11 11:29:28;;;;;;;;;;;;;;;;;;2202451;67;1941;-67
2022/07/11 11:32:05;;;;;;;;;;;;;;;;;;2202526;59;2046;-66
2022/07/11 11:34:38;;;;;;;;;;;;;;;;;;2202576;67;1133;-66
2022/07/11 11:37:13;;;;;;;;;;;;;;;;;;2202428;67;1127;-67
2022/07/11 11:39:46;;;;;;;;;;;;;;;;;;2202378;67;1174;-66
2022/07/11 11:42:21;;;;;;;;;;;;;;;;;;2202407;59;1987;-66
2022/07/11 11:44:56;;;;;;;;;;;;;;;;;;2202230;67;1038;-67
2022/07/11 11:47:34;;;;;;;;;;;;;;;;;;2202371;67;1069;-64
2022/07/11 11:50:10;;;;;;;;;;;;;;;;;;2202176;67;1937;-66
2022/07/11 11:52:43;;;;;;;;;;;;;;;;;;2202207;67;1220;-67
2022/07/11 11:55:17;;;;;;;;;;;;;;;;;;2202203;67;1346;-65
2022/07/11 11:57:50;;;;;;;;;;;;;;;;;;2202276;67;1265;-65
2022/07/11 12:00:26;;;;;;;;;;;;;;;;;;2202141;67;1216;-66
2022/07/11 12:03:02;;;;;;;;;;;;;;;;;;2201979;67;1464;-66
2022/07/11 12:05:35;;;;;;;;;;;;;;;;;;2202107;59;1581;-66
2022/07/11 12:08:08;;;;;;;;;;;;;;;;;;2201993;59;1208;-66
2022/07/11 12:10:41;;;;;;;;;;;;;;;;;;2202049;59;1995;-66
2022/07/11 12:13:14;;;;;;;;;;;;;;;;;;2202328;59;1293;-67
2022/07/11 12:18:49;;;;;;;;;;;;;;;;;;2202197;67;2692;-65
2022/07/11 12:21:22;;;;;;;;;;;;;;;;;;2204043;67;1270;-67
2022/07/11 12:23:55;;;;;;;;;;;;;;;;;;2203688;67;1000;-66
2022/07/11 12:26:29;;;;;;;;;;;;;;;;;;2202651;59;1110;-66
2022/07/11 12:29:07;;;;;;;;;;;;;;;;;;2203719;67;1995;-65
2022/07/11 12:31:44;;;;;;;;;;;;;;;;;;2202477;59;2121;-66
2022/07/11 12:34:21;;;;;;;;;;;;;;;;;;2202385;67;1323;-66
2022/07/11 12:37:03;;;;;;;;;;;;;;;;;;2203330;67;1025;-66
2022/07/11 12:39:38;;;;;;;;;;;;;;;;;;2202626;67;1113;-66
2022/07/11 12:42:23;;;;;;;;;;;;;;;;;;2203861;59;2094;-66
2022/07/11 12:45:07;;;;;;;;;;;;;;;;;;2203253;67;1197;-65
2022/07/11 12:47:41;;;;;;;;;;;;;;;;;;2202579;67;1057;-65
2022/07/11 12:50:18;;;;;;;;;;;;;;;;;;2203497;67;1993;-66
2022/07/11 12:52:54;;;;;;;;;;;;;;;;;;2203043;67;1240;-66
2022/07/11 12:55:28;;;;;;;;;;;;;;;;;;2203605;67;1219;-66
2022/07/11 12:58:09;;;;;;;;;;;;;;;;;;2203476;67;1182;-66
2022/07/11 13:00:45;;;;;;;;;;;;;;;;;;2201789;67;1152;-66
2022/07/11 13:03:29;;;;;;;;;;;;;;;;;;2202455;59;1414;-65
2022/07/11 13:06:06;;;;;;;;;;;;;;;;;;2203208;67;1202;-66
2022/07/11 13:08:45;;;;;;;;;;;;;;;;;;2203589;67;1215;-64
2022/07/11 13:11:19;;;;;;;;;;;;;;;;;;2203033;59;1937;-65
2022/07/11 13:13:53;;;;;;;;;;;;;;;;;;2203065;67;1037;-66
2022/07/11 13:16:26;;;;;;;;;;;;;;;;;;2203167;67;1207;-66
2022/07/11 13:19:00;;;;;;;;;;;;;;;;;;2202887;67;1018;-64
2022/07/11 13:21:36;;;;;;;;;;;;;;;;;;2203224;67;1249;-66
2022/07/11 13:24:09;;;;;;;;;;;;;;;;;;2202309;67;1155;-65
2022/07/11 13:26:42;;;;;;;;;;;;;;;;;;2202708;59;1229;-66
2022/07/11 13:29:15;;;;;;;;;;;;;;;;;;2203114;67;1927;-67
2022/07/11 13:31:49;;;;;;;;;;;;;;;;;;2202868;59;2049;-65
2022/07/11 13:34:22;;;;;;;;;;;;;;;;;;2203530;67;1287;-66
2022/07/11 13:36:58;;;;;;;;;;;;;;;;;;2202734;67;1245;-66
2022/07/11 13:39:31;;;;;;;;;;;;;;;;;;2203535;67;1181;-65
2022/07/11 13:42:04;;;;;;;;;;;;;;;;;;2203566;59;1988;-65
2022/07/11 13:44:37;;;;;;;;;;;;;;;;;;2203927;67;1209;-65
2022/07/11 13:47:11;;;;;;;;;;;;;;;;;;2202333;67;1094;-66
2022/07/11 13:49:45;;;;;;;;;;;;;;;;;;2202697;67;1936;-66
2022/07/11 13:52:21;;;;;;;;;;;;;;;;;;2202548;67;1224;-66
2022/07/11 13:54:54;;;;;;;;;;;;;;;;;;2202720;67;1025;-65
2022/07/11 13:57:27;;;;;;;;;;;;;;;;;;2202446;67;1256;-65
2022/07/11 14:00:02;;;;;;;;;;;;;;;;;;2202685;67;1185;-65
2022/07/11 14:02:35;;;;;;;;;;;;;;;;;;2202976;67;1262;-67
2022/07/11 14:05:09;;;;;;;;;;;;;;;;;;2202766;59;1419;-67
2022/07/11 14:07:45;;;;;;;;;;;;;;;;;;2203112;59;1199;-65
2022/07/11 14:10:18;;;;;;;;;;;;;;;;;;2202313;67;1931;-67
2022/07/11 14:12:51;;;;;;;;;;;;;;;;;;2202640;59;1405;-66
2022/07/11 14:15:24;;;;;;;;;;;;;;;;;;2202823;67;1204;-65
2022/07/11 14:17:57;;;;;;;;;;;;;;;;;;2202712;67;1196;-66
2022/07/11 14:20:30;;;;;;;;;;;;;;;;;;2203048;67;1140;-66
2022/07/11 14:23:06;;;;;;;;;;;;;;;;;;2202613;67;1215;-65
2022/07/11 14:25:40;;;;;;;;;;;;;;;;;;2202059;59;1213;-66
2022/07/11 14:28:13;;;;;;;;;;;;;;;;;;2201985;62;1205;-67
2022/07/11 14:30:46;;;;;;;;;;;;;;;;;;2202351;59;2022;-66
2022/07/11 14:33:20;;;;;;;;;;;;;;;;;;2202852;67;1216;-66
2022/07/11 14:35:53;;;;;;;;;;;;;;;;;;2202619;67;1260;-66
2022/07/11 14:38:29;;;;;;;;;;;;;;;;;;2202531;67;1243;-66
2022/07/11 14:41:03;;;;;;;;;;;;;;;;;;2202211;59;1917;-67
2022/07/11 14:43:36;;;;;;;;;;;;;;;;;;2202406;67;1214;-67
2022/07/11 14:46:09;;;;;;;;;;;;;;;;;;2202482;67;1036;-65
2022/07/11 14:48:43;;;;;;;;;;;;;;;;;;2202578;67;1107;-66
2022/07/11 14:51:16;;;;;;;;;;;;;;;;;;2202060;67;1981;-67
2022/07/11 14:53:52;;;;;;;;;;;;;;;;;;2202247;67;1301;-66
2022/07/11 14:56:25;;;;;;;;;;;;;;;;;;2202289;67;1180;-67
2022/07/11 14:58:58;;;;;;;;;;;;;;;;;;2202276;67;1115;-66
2022/07/11 15:01:31;;;;;;;;;;;;;;;;;;2202117;67;1229;-67
2022/07/11 15:04:05;;;;;;;;;;;;;;;;;;2201533;67;1416;-66
2022/07/11 15:12:28;;;;;;;;;;;;;;;;;;2201995;59;1461;-67
2022/07/11 15:15:01;;;;;;;;;;;;;;;;;;2202209;67;1082;-67
2022/07/11 15:17:34;;;;;;;;;;;;;;;;;;2202222;67;1262;-67
2022/07/11 15:20:07;;;;;;;;;;;;;;;;;;2202370;67;1210;-67
2022/07/11 15:22:40;;;;;;;;;;;;;;;;;;2202725;67;1242;-67
2022/07/11 15:25:16;;;;;;;;;;;;;;;;;;2202253;67;1209;-67
2022/07/11 15:27:50;;;;;;;;;;;;;;;;;;2202188;67;1044;-67
2022/07/11 15:30:23;;;;;;;;;;;;;;;;;;2202492;59;2124;-66
2022/07/11 15:32:56;;;;;;;;;;;;;;;;;;2202488;67;1204;-67
2022/07/11 15:35:29;;;;;;;;;;;;;;;;;;2202593;67;1019;-67
2022/07/11 15:38:02;;;;;;;;;;;;;;;;;;2202023;67;1113;-67
2022/07/11 15:40:38;;;;;;;;;;;;;;;;;;2202796;59;2001;-67
2022/07/11 15:43:11;;;;;;;;;;;;;;;;;;2202133;67;1226;-66
2022/07/11 15:45:44;;;;;;;;;;;;;;;;;;2202204;67;1129;-67
2022/07/11 15:48:18;;;;;;;;;;;;;;;;;;2202290;67;1246;-67
2022/07/11 15:50:51;;;;;;;;;;;;;;;;;;2201757;67;1932;-67
2022/07/11 15:53:24;;;;;;;;;;;;;;;;;;2202415;67;1278;-67
2022/07/11 15:56:00;;;;;;;;;;;;;;;;;;2202696;67;1160;-67
2022/07/11 15:58:35;;;;;;;;;;;;;;;;;;2202059;67;1121;-67
2022/07/11 16:01:08;;;;;;;;;;;;;;;;;;2203988;59;1058;-67
2022/07/11 16:03:41;;;;;;;;;;;;;;;;;;2203452;59;1273;-66
2022/07/11 16:06:15;;;;;;;;;;;;;;;;;;2203686;59;1166;-67
2022/07/11 16:08:48;;;;;;;;;;;;;;;;;;2203668;59;1104;-67
2022/07/11 16:11:24;;;;;;;;;;;;;;;;;;2203606;59;1936;-67
2022/07/11 16:13:58;;;;;;;;;;;;;;;;;;2203437;67;1197;-67
2022/07/11 16:16:31;;;;;;;;;;;;;;;;;;2203729;67;1140;-67
2022/07/11 16:19:05;;;;;;;;;;;;;;;;;;2203411;67;2182;-66
2022/07/11 16:21:38;;;;;;;;;;;;;;;;;;2203312;67;1205;-66
2022/07/11 16:24:11;;;;;;;;;;;;;;;;;;2203284;67;1193;-66
2022/07/11 16:26:47;;;;;;;;;;;;;;;;;;2202876;59;1105;-67
2022/07/11 16:29:20;;;;;;;;;;;;;;;;;;2203184;67;1158;-66
2022/07/11 16:31:54;;;;;;;;;;;;;;;;;;2202992;59;2053;-67
2022/07/11 16:34:27;;;;;;;;;;;;;;;;;;2203310;59;1271;-66
2022/07/11 16:37:00;;;;;;;;;;;;;;;;;;2203132;67;1148;-67
2022/07/11 16:45:15;;;;;;;;;;;;;;;;;;2203247;67;1134;-67
2022/07/11 16:47:49;;;;;;;;;;;;;;;;;;2203051;67;1026;-67
2022/07/11 16:50:22;;;;;;;;;;;;;;;;;;2202804;67;1930;-66
2022/07/11 16:52:55;;;;;;;;;;;;;;;;;;2203006;67;1188;-66
2022/07/11 16:55:28;;;;;;;;;;;;;;;;;;2202912;67;1243;-67
2022/07/11 16:58:04;;;;;;;;;;;;;;;;;;2202887;67;1063;-67
2022/07/11 17:00:37;;;;;;;;;;;;;;;;;;2202904;67;1100;-66
2022/07/11 17:03:11;;;;;;;;;;;;;;;;;;2202853;67;1139;-67
2022/07/11 17:05:44;;;;;;;;;;;;;;;;;;2203021;59;1681;-66
2022/07/11 17:11:08;;;;;;;;;;;;;;;;;;2202648;59;1989;-66
2022/07/11 17:13:45;;;;;;;;;;;;;;;;;;2199305;67;1917;-66
2022/07/11 17:16:18;;;;;;;;;;;;;;;;;;2203090;67;1118;-67
2022/07/11 17:18:51;;;;;;;;;;;;;;;;;;2203087;67;985;-67
2022/07/11 17:21:24;;;;;;;;;;;;;;;;;;2202266;67;1255;-66
2022/07/11 17:23:58;;;;;;;;;;;;;;;;;;2202646;67;1620;-65
2022/07/11 17:26:31;;;;;;;;;;;;;;;;;;2202461;59;1106;-66
2022/07/11 17:29:07;;;;;;;;;;;;;;;;;;2202355;67;1125;-67
2022/07/11 17:31:45;;;;;;;;;;;;;;;;;;2197798;60;2115;-67
2022/07/11 17:34:18;;;;;;;;;;;;;;;;;;2201951;67;1231;-66
2022/07/11 17:36:52;;;;;;;;;;;;;;;;;;2201992;67;1319;-67
2022/07/11 17:39:25;;;;;;;;;;;;;;;;;;2201499;67;1245;-66
2022/07/11 17:41:58;;;;;;;;;;;;;;;;;;2202023;59;2010;-65
2022/07/11 17:44:34;;;;;;;;;;;;;;;;;;2202152;67;1170;-66
2022/07/11 17:47:07;;;;;;;;;;;;;;;;;;2202174;67;1272;-66
2022/07/11 17:49:41;;;;;;;;;;;;;;;;;;2202339;67;1188;-66
2022/07/11 17:52:14;;;;;;;;;;;;;;;;;;2202623;67;1911;-65
2022/07/11 18:05:19;;;;;;;;;;;;;;;;;;2203994;59;1021;-67
2022/07/11 18:07:52;;;;;;;;;;;;;;;;;;2201607;67;1088;-65
2022/07/11 18:10:25;;;;;;;;;;;;;;;;;;2202602;67;1303;-65
2022/07/11 18:12:59;;;;;;;;;;;;;;;;;;2202342;59;1986;-66
2022/07/11 18:15:33;;;;;;;;;;;;;;;;;;2202496;67;1335;-66
2022/07/11 18:18:06;;;;;;;;;;;;;;;;;;2202151;67;1200;-67
2022/07/11 18:20:42;;;;;;;;;;;;;;;;;;2201996;67;1044;-66
2022/07/11 18:23:15;;;;;;;;;;;;;;;;;;2202291;67;1235;-66
2022/07/11 18:25:48;;;;;;;;;;;;;;;;;;2202385;59;1077;-66
2022/07/11 18:28:21;;;;;;;;;;;;;;;;;;2202130;67;1241;-66